createdAt,value
2023-05-07T00:01:13.320Z,652.13
2023-05-07T00:03:40.182Z,671.40
2023-05-07T00:06:07.091Z,644.85
2023-05-07T00:08:33.992Z,667.55
2023-05-07T00:11:00.375Z,677.63
2023-05-07T00:13:26.888Z,656.35
2023-05-07T00:15:53.382Z,654.33
2023-05-07T00:18:22.066Z,660.80
2023-05-07T00:20:48.431Z,650.95
2023-05-07T00:23:14.778Z,683.92
2023-05-07T00:25:41.148Z,672.03
2023-05-07T00:28:07.559Z,684.90
2023-05-07T00:30:33.899Z,673.45
2023-05-07T00:33:00.340Z,694.60
2023-05-07T00:35:27.004Z,692.08
2023-05-07T00:37:53.369Z,695.13
2023-05-07T00:40:19.806Z,686.75
2023-05-07T00:42:48.135Z,687.55
2023-05-07T00:45:15.074Z,691.58
2023-05-07T00:47:42.378Z,615.72
2023-05-07T00:50:10.984Z,608.42
2023-05-07T00:52:38.297Z,624.50
2023-05-07T00:55:07.126Z,639.03
2023-05-07T00:57:37.721Z,649.90
2023-05-07T01:00:05.902Z,621.95
2023-05-07T01:02:32.379Z,583.08
2023-05-07T01:04:58.995Z,650.95
2023-05-07T01:07:26.038Z,677.83
2023-05-07T01:09:52.722Z,661.83
2023-05-07T01:12:19.420Z,651.97
2023-05-07T01:14:46.006Z,660.53
2023-05-07T01:17:12.493Z,697.63
2023-05-07T01:19:38.871Z,680.70
2023-05-07T01:22:10.298Z,686.95
2023-05-07T01:24:38.130Z,677.13
2023-05-07T01:27:05.315Z,678.13
2023-05-07T01:29:31.751Z,681.15
2023-05-07T01:32:00.616Z,692.63
2023-05-07T01:34:31.189Z,693.90
2023-05-07T01:36:58.984Z,621.13
2023-05-07T01:39:26.873Z,675.13
2023-05-07T01:41:57.406Z,670.30
2023-05-07T01:44:25.224Z,678.25
2023-05-07T01:46:51.914Z,678.55
2023-05-07T01:49:18.990Z,698.03
2023-05-07T01:51:45.545Z,682.95
2023-05-07T01:54:12.391Z,693.45
2023-05-07T01:56:38.909Z,684.40
2023-05-07T01:59:06.051Z,681.60
2023-05-07T02:01:32.685Z,657.40
2023-05-07T02:03:59.144Z,637.42
2023-05-07T02:06:25.796Z,637.65
2023-05-07T02:08:52.306Z,630.75
2023-05-07T02:11:18.708Z,591.67
2023-05-07T02:13:45.147Z,583.80
2023-05-07T02:16:11.837Z,588.95
2023-05-07T02:18:38.593Z,564.72
2023-05-07T02:21:04.999Z,569.72
2023-05-07T02:23:31.416Z,574.92
2023-05-07T02:25:57.873Z,592.65
2023-05-07T02:28:24.684Z,598.33
2023-05-07T02:30:51.560Z,578.95
2023-05-07T02:33:17.987Z,596.20
2023-05-07T02:35:44.349Z,569.92
2023-05-07T02:38:11.752Z,580.13
2023-05-07T02:40:41.025Z,590.33
2023-05-07T02:43:07.504Z,579.17
2023-05-07T02:45:34.440Z,600.55
2023-05-07T02:48:00.937Z,539.28
2023-05-07T02:50:28.037Z,512.33
2023-05-07T02:52:54.795Z,550.80
2023-05-07T02:55:21.303Z,578.33
2023-05-07T02:57:47.741Z,619.38
2023-05-07T03:00:18.909Z,614.17
2023-05-07T03:02:46.194Z,616.95
2023-05-07T03:05:13.565Z,609.38
2023-05-07T03:07:40.028Z,625.13
2023-05-07T03:10:07.233Z,618.42
2023-05-07T03:12:33.745Z,634.60
2023-05-07T03:15:00.286Z,629.50
2023-05-07T03:17:26.748Z,629.40
2023-05-07T03:19:53.146Z,611.15
2023-05-07T03:22:19.636Z,618.22
2023-05-07T03:24:46.086Z,625.38
2023-05-07T03:27:12.507Z,622.63
2023-05-07T03:29:38.877Z,592.47
2023-05-07T03:32:05.487Z,626.58
2023-05-07T03:34:31.999Z,602.20
2023-05-07T03:36:58.337Z,619.95
2023-05-07T03:39:24.718Z,589.45
2023-05-07T03:41:51.203Z,620.95
2023-05-07T03:44:17.538Z,610.25
2023-05-07T03:46:44.055Z,609.78
2023-05-07T03:49:11.733Z,598.83
2023-05-07T03:51:38.118Z,587.08
2023-05-07T03:54:04.767Z,600.28
2023-05-07T03:56:32.068Z,616.50
2023-05-07T03:58:58.470Z,596.28
2023-05-07T04:01:25.230Z,580.75
2023-05-07T04:03:51.785Z,589.67
2023-05-07T04:06:18.516Z,586.47
2023-05-07T04:08:44.991Z,585.90
2023-05-07T04:11:11.385Z,602.40
2023-05-07T04:13:40.497Z,602.85
2023-05-07T04:16:07.340Z,582.60
2023-05-07T04:18:33.753Z,601.80
2023-05-07T04:21:00.182Z,591.92
2023-05-07T04:23:26.635Z,598.08
2023-05-07T04:25:52.985Z,568.70
2023-05-07T04:28:19.341Z,584.17
2023-05-07T04:30:45.773Z,636.53
2023-05-07T04:33:12.667Z,665.60
2023-05-07T04:35:39.135Z,646.28
2023-05-07T04:38:05.479Z,615.47
2023-05-07T04:40:31.982Z,627.78
2023-05-07T04:42:58.367Z,683.42
2023-05-07T04:45:24.759Z,639.92
2023-05-07T04:47:51.196Z,596.72
2023-05-07T04:50:18.652Z,586.25
2023-05-07T04:52:45.083Z,582.55
2023-05-07T04:55:11.727Z,640.22
2023-05-07T04:57:40.609Z,615.47
2023-05-07T05:00:09.606Z,644.35
2023-05-07T05:02:36.231Z,660.13
2023-05-07T05:05:03.294Z,699.08
2023-05-07T05:07:29.660Z,665.95
2023-05-07T05:09:56.519Z,638.85
2023-05-07T05:12:23.146Z,638.05
2023-05-07T05:14:49.591Z,645.38
2023-05-07T05:17:15.983Z,655.00
2023-05-07T05:19:42.393Z,662.33
2023-05-07T05:22:08.782Z,664.03
2023-05-07T05:24:35.098Z,665.47
2023-05-07T05:27:02.296Z,627.63
2023-05-07T05:29:28.698Z,454.60
2023-05-07T05:31:55.121Z,403.20
2023-05-07T05:34:22.719Z,422.48
2023-05-07T05:36:49.335Z,455.73
2023-05-07T05:39:15.801Z,477.90
2023-05-07T05:41:42.261Z,479.67
2023-05-07T05:44:08.717Z,534.70
2023-05-07T05:46:37.172Z,515.72
2023-05-07T05:49:03.732Z,459.33
2023-05-07T05:51:30.109Z,395.83
2023-05-07T05:53:56.473Z,388.63
2023-05-07T05:56:22.924Z,419.17
2023-05-07T05:58:49.380Z,440.10
2023-05-07T06:01:15.981Z,442.33
2023-05-07T06:03:42.336Z,415.80
2023-05-07T06:06:08.738Z,463.17
2023-05-07T06:08:35.218Z,404.38
2023-05-07T06:11:03.344Z,457.65
2023-05-07T06:13:29.829Z,396.55
2023-05-07T06:15:56.447Z,435.27
2023-05-07T06:18:23.137Z,512.40
2023-05-07T06:20:49.802Z,466.30
2023-05-07T06:23:17.947Z,493.65
2023-05-07T06:25:50.363Z,476.45
2023-05-07T06:28:17.320Z,414.35
2023-05-07T06:30:43.856Z,468.63
2023-05-07T06:33:10.617Z,364.05
2023-05-07T06:35:36.988Z,325.08
2023-05-07T06:38:03.346Z,402.98
2023-05-07T06:40:29.768Z,394.75
2023-05-07T06:42:56.099Z,390.38
2023-05-07T06:45:22.536Z,409.10
2023-05-07T06:47:48.950Z,424.33
2023-05-07T06:50:17.553Z,392.85
2023-05-07T06:52:44.179Z,464.70
2023-05-07T06:55:10.557Z,449.20
2023-05-07T06:57:37.213Z,486.70
2023-05-07T07:00:05.220Z,424.15
2023-05-07T07:02:31.616Z,440.17
2023-05-07T07:04:58.072Z,438.85
2023-05-07T07:07:24.454Z,461.73
2023-05-07T07:09:50.942Z,451.13
2023-05-07T07:12:18.532Z,486.23
2023-05-07T07:14:44.884Z,512.15
2023-05-07T07:17:11.463Z,458.08
2023-05-07T07:19:38.598Z,387.08
2023-05-07T07:22:04.985Z,356.17
2023-05-07T07:24:31.361Z,364.95
2023-05-07T07:26:57.791Z,388.50
2023-05-07T07:29:24.526Z,363.77
2023-05-07T07:31:51.060Z,377.00
2023-05-07T07:34:17.462Z,477.55
2023-05-07T07:36:46.739Z,447.15
2023-05-07T07:39:13.874Z,396.75
2023-05-07T07:41:40.364Z,431.08
2023-05-07T07:44:08.482Z,407.27
2023-05-07T07:46:35.562Z,411.30
2023-05-07T07:49:01.941Z,329.15
2023-05-07T07:51:28.383Z,312.17
2023-05-07T07:53:54.817Z,357.02
2023-05-07T07:56:21.665Z,292.30
2023-05-07T07:58:48.053Z,252.52
2023-05-07T08:01:14.507Z,254.95
2023-05-07T08:03:41.015Z,344.08
2023-05-07T08:06:08.578Z,267.95
2023-05-07T08:08:38.115Z,268.85
2023-05-07T08:11:04.568Z,307.42
2023-05-07T08:13:31.049Z,303.60
2023-05-07T08:16:01.017Z,189.98
2023-05-07T08:18:29.351Z,161.32
2023-05-07T08:20:58.593Z,224.32
2023-05-07T08:23:28.252Z,210.57
2023-05-07T08:25:54.726Z,196.93
2023-05-07T08:29:08.828Z,263.98
2023-05-07T08:31:11.547Z,139.52
2023-05-07T08:33:39.435Z,84.28
2023-05-07T08:36:27.172Z,90.97
2023-05-07T08:38:55.890Z,166.73
2023-05-07T08:41:22.498Z,79.65
2023-05-07T08:43:53.310Z,134.25
2023-05-07T08:46:21.846Z,31.52
2023-05-07T08:48:55.929Z,93.15
2023-05-07T08:51:22.809Z,52.00
2023-05-07T08:53:51.880Z,26.25
2023-05-07T08:56:20.442Z,83.30
2023-05-07T08:58:49.016Z,42.80
2023-05-07T09:01:16.876Z,17.77
2023-05-07T09:03:48.355Z,60.63
2023-05-07T09:06:15.144Z,144.50
2023-05-07T09:08:41.634Z,149.77
2023-05-07T09:11:08.131Z,141.05
2023-05-07T09:13:37.005Z,20.95
2023-05-07T09:16:12.632Z,85.93
2023-05-07T09:18:45.837Z,24.85
2023-05-07T09:21:15.805Z,38.97
2023-05-07T09:23:43.066Z,24.02
2023-05-07T09:26:15.642Z,227.50
2023-05-07T09:28:42.913Z,146.07
2023-05-07T09:31:10.672Z,56.05
2023-05-07T09:33:37.442Z,50.65
2023-05-07T09:36:05.937Z,53.45
2023-05-07T09:38:36.178Z,136.77
2023-05-07T09:41:12.518Z,56.25
2023-05-07T09:43:40.029Z,27.23
2023-05-07T09:46:13.324Z,25.85
2023-05-07T09:48:41.375Z,25.55
2023-05-07T09:51:19.246Z,60.63
2023-05-07T09:53:47.155Z,108.70
2023-05-07T09:56:15.817Z,48.22
2023-05-07T09:58:42.922Z,25.58
2023-05-07T10:01:11.707Z,26.48
2023-05-07T10:03:41.371Z,21.80
2023-05-07T10:06:10.310Z,90.38
2023-05-07T10:08:37.352Z,22.75
2023-05-07T10:11:06.008Z,28.48
2023-05-07T10:13:36.876Z,32.20
2023-05-07T10:16:06.614Z,44.47
2023-05-07T10:18:34.036Z,21.70
2023-05-07T10:21:18.727Z,44.78
2023-05-07T10:24:18.933Z,17.73
2023-05-07T10:26:49.400Z,14.88
2023-05-07T10:30:04.030Z,37.10
2023-05-07T10:32:41.785Z,20.73
2023-05-07T10:35:15.041Z,41.80
2023-05-07T10:37:42.265Z,25.38
2023-05-07T10:40:10.721Z,78.10
2023-05-07T10:42:37.170Z,98.38
2023-05-07T10:45:15.041Z,72.45
2023-05-07T10:48:29.654Z,83.90
2023-05-07T10:51:20.462Z,32.78
2023-05-07T10:53:46.853Z,25.90
2023-05-07T10:56:22.255Z,18.20
2023-05-07T10:58:48.601Z,22.30
2023-05-07T11:01:15.697Z,36.72
2023-05-07T11:04:14.022Z,29.23
2023-05-07T11:06:41.097Z,21.95
2023-05-07T11:09:08.660Z,13.93
2023-05-07T11:11:56.969Z,15.82
2023-05-07T11:14:45.488Z,10.57
2023-05-07T11:17:12.600Z,12.10
2023-05-07T11:19:52.882Z,11.38
2023-05-07T11:22:38.069Z,13.82
2023-05-07T11:25:04.865Z,11.85
2023-05-07T11:27:31.210Z,14.32
2023-05-07T11:29:57.564Z,11.88
2023-05-07T11:32:25.095Z,11.93
2023-05-07T11:34:56.013Z,15.13
2023-05-07T11:37:24.007Z,11.73
2023-05-07T11:39:55.424Z,14.95
2023-05-07T11:42:31.827Z,13.77
2023-05-07T11:44:58.770Z,13.30
2023-05-07T11:47:26.200Z,12.27
2023-05-07T11:49:54.556Z,12.30
2023-05-07T11:52:22.657Z,12.02
2023-05-07T11:54:53.803Z,13.43
2023-05-07T11:57:20.847Z,12.05
2023-05-07T11:59:50.244Z,15.45
2023-05-07T12:02:19.144Z,13.13
2023-05-07T12:04:45.717Z,13.00
2023-05-07T12:07:14.494Z,15.40
2023-05-07T12:09:42.259Z,9.70
2023-05-07T12:12:19.334Z,10.07
2023-05-07T12:14:46.819Z,9.95
2023-05-07T12:17:15.309Z,12.60
2023-05-07T12:19:45.497Z,18.55
2023-05-07T12:22:12.793Z,17.10
2023-05-07T12:24:58.471Z,13.23
2023-05-07T12:27:26.733Z,11.95
2023-05-07T12:29:53.218Z,16.17
2023-05-07T12:32:21.954Z,11.93
2023-05-07T12:34:51.765Z,12.68
2023-05-07T12:37:23.600Z,11.45
2023-05-07T12:40:03.952Z,14.10
2023-05-07T12:42:36.065Z,15.90
2023-05-07T12:45:17.328Z,9.93
2023-05-07T12:47:48.332Z,6.53
2023-05-07T12:50:16.586Z,6.72
2023-05-07T12:52:45.296Z,6.38
2023-05-07T12:55:15.771Z,6.50
2023-05-07T12:57:49.363Z,8.45
2023-05-07T13:00:16.240Z,6.00
2023-05-07T13:02:47.151Z,6.38
2023-05-07T13:05:14.150Z,6.78
2023-05-07T13:07:41.648Z,11.90
2023-05-07T13:10:08.693Z,12.90
2023-05-07T13:12:35.943Z,18.23
2023-05-07T13:15:02.324Z,13.25
2023-05-07T13:17:28.792Z,15.30
2023-05-07T13:19:55.174Z,17.02
2023-05-07T13:22:21.530Z,16.15
2023-05-07T13:24:48.060Z,18.92
2023-05-07T13:27:14.380Z,21.40
2023-05-07T13:29:40.754Z,19.08
2023-05-07T13:32:07.257Z,18.35
2023-05-07T13:34:33.697Z,16.70
2023-05-07T13:37:00.171Z,16.40
2023-05-07T13:39:26.785Z,17.38
2023-05-07T13:41:53.224Z,16.95
2023-05-07T13:44:19.911Z,81.47
2023-05-07T13:46:46.467Z,415.30
2023-05-07T13:49:13.811Z,561.95
2023-05-07T13:51:41.357Z,498.33
2023-05-07T13:54:07.710Z,532.97
2023-05-07T13:56:34.363Z,600.65
2023-05-07T13:59:01.158Z,586.88
2023-05-07T14:01:28.455Z,695.70
2023-05-07T14:03:55.073Z,802.60
2023-05-07T14:06:21.448Z,761.92
2023-05-07T14:08:47.843Z,822.80
2023-05-07T14:11:14.360Z,864.55
2023-05-07T14:13:41.050Z,853.60
2023-05-07T14:16:07.477Z,908.05
2023-05-07T14:18:35.366Z,934.85
2023-05-07T14:21:01.775Z,944.53
2023-05-07T14:23:28.715Z,968.38
2023-05-07T14:25:55.536Z,999.90
2023-05-07T14:28:23.462Z,999.90
2023-05-07T14:30:50.055Z,998.80
2023-05-07T14:33:16.727Z,999.90
2023-05-07T14:35:48.459Z,999.90
2023-05-07T14:38:15.599Z,999.90
2023-05-07T14:40:45.871Z,999.90
2023-05-07T14:43:12.463Z,999.90
2023-05-07T14:45:39.563Z,999.90
2023-05-07T14:48:06.671Z,999.90
2023-05-07T14:50:35.401Z,999.90
2023-05-07T14:53:02.013Z,999.90
2023-05-07T14:55:29.071Z,999.90
2023-05-07T14:57:56.812Z,999.90
2023-05-07T15:00:23.551Z,999.90
2023-05-07T15:02:50.367Z,999.90
2023-05-07T15:05:19.593Z,999.90
2023-05-07T15:07:47.294Z,999.90
2023-05-07T15:10:16.234Z,999.90
2023-05-07T15:12:42.738Z,894.67
2023-05-07T15:15:10.141Z,999.90
2023-05-07T15:17:38.670Z,999.90
2023-05-07T15:20:06.024Z,999.90
2023-05-07T15:22:40.040Z,999.90
2023-05-07T15:25:06.752Z,999.90
2023-05-07T15:27:39.917Z,999.90
2023-05-07T15:30:07.021Z,999.90
2023-05-07T15:32:35.696Z,999.90
2023-05-07T15:35:06.464Z,999.90
2023-05-07T15:37:36.187Z,999.90
2023-05-07T15:40:03.553Z,999.90
2023-05-07T15:42:30.137Z,999.90
2023-05-07T15:45:08.589Z,999.90
2023-05-07T15:47:37.899Z,999.90
2023-05-07T15:50:05.170Z,999.90
2023-05-07T15:52:52.052Z,999.90
2023-05-07T15:55:18.738Z,999.90
2023-05-07T15:57:52.344Z,999.90
2023-05-07T16:00:22.981Z,999.90
2023-05-07T16:02:52.033Z,999.90
2023-05-07T16:05:25.059Z,999.90
2023-05-07T16:07:52.756Z,999.90
2023-05-07T16:10:21.732Z,999.90
2023-05-07T16:12:48.316Z,994.80
2023-05-07T16:15:15.913Z,990.63
2023-05-07T16:17:42.766Z,999.90
2023-05-07T16:20:16.773Z,999.90
2023-05-07T16:22:53.734Z,992.88
2023-05-07T16:25:22.704Z,990.38
2023-05-07T16:27:49.279Z,996.38
2023-05-07T16:30:21.149Z,996.22
2023-05-07T16:32:50.266Z,996.05
2023-05-07T16:35:17.010Z,995.20
2023-05-07T16:37:43.591Z,951.72
2023-05-07T16:40:10.662Z,943.53
2023-05-07T16:42:37.361Z,961.60
2023-05-07T16:45:07.075Z,971.33
2023-05-07T16:47:33.503Z,929.53
2023-05-07T16:50:00.872Z,943.72
2023-05-07T16:52:29.726Z,928.90
2023-05-07T16:54:58.394Z,924.33
2023-05-07T16:57:25.428Z,919.90
2023-05-07T16:59:55.384Z,937.83
2023-05-07T17:02:22.047Z,913.28
2023-05-07T17:04:48.553Z,949.65
2023-05-07T17:07:18.206Z,926.78
2023-05-07T17:09:44.872Z,974.88
2023-05-07T17:12:11.266Z,990.45
2023-05-07T17:14:37.647Z,981.03
2023-05-07T17:17:04.113Z,987.45
2023-05-07T17:19:30.537Z,971.88
2023-05-07T17:21:57.493Z,979.40
2023-05-07T17:24:23.867Z,996.60
2023-05-07T17:26:50.339Z,985.55
2023-05-07T17:29:19.057Z,977.17
2023-05-07T17:31:46.421Z,971.65
2023-05-07T17:34:25.531Z,957.53
2023-05-07T17:36:58.984Z,961.00
2023-05-07T17:39:25.411Z,982.93
2023-05-07T17:41:51.866Z,959.60
2023-05-07T17:44:18.769Z,971.15
2023-05-07T17:46:47.964Z,992.55
2023-05-07T17:49:16.201Z,980.15
2023-05-07T17:51:53.288Z,974.65
2023-05-07T17:54:32.651Z,945.38
2023-05-07T17:57:01.294Z,956.17
2023-05-07T17:59:29.624Z,993.97
2023-05-07T18:01:56.091Z,966.60
2023-05-07T18:04:24.479Z,972.50
2023-05-07T18:06:50.991Z,980.53
2023-05-07T18:09:17.393Z,999.90
2023-05-07T18:11:43.813Z,996.85
2023-05-07T18:14:10.414Z,982.70
2023-05-07T18:16:36.911Z,969.50
2023-05-07T18:19:03.311Z,969.33
2023-05-07T18:21:29.816Z,988.72
2023-05-07T18:23:56.187Z,974.20
2023-05-07T18:26:22.574Z,966.78
2023-05-07T18:28:48.960Z,997.08
2023-05-07T18:31:15.572Z,998.95
2023-05-07T18:33:42.024Z,974.67
2023-05-07T18:36:08.404Z,990.05
2023-05-07T18:38:34.814Z,989.47
2023-05-07T18:41:05.297Z,980.88
2023-05-07T18:43:32.185Z,954.08
2023-05-07T18:45:58.653Z,953.05
2023-05-07T18:48:25.337Z,963.17
2023-05-07T18:50:51.760Z,946.78
2023-05-07T18:53:18.210Z,969.83
2023-05-07T18:55:49.435Z,961.78
2023-05-07T18:58:16.914Z,972.60
2023-05-07T19:00:43.277Z,951.10
2023-05-07T19:03:09.813Z,975.30
2023-05-07T19:05:36.255Z,975.83
2023-05-07T19:08:02.822Z,978.17
2023-05-07T19:10:29.187Z,989.58
2023-05-07T19:12:57.389Z,975.97
2023-05-07T19:15:23.802Z,967.95
2023-05-07T19:17:51.001Z,959.05
2023-05-07T19:20:17.802Z,967.80
2023-05-07T19:22:44.479Z,970.55
2023-05-07T19:25:13.295Z,982.22
2023-05-07T19:27:40.379Z,970.17
2023-05-07T19:30:09.121Z,980.20
2023-05-07T19:32:35.880Z,960.08
2023-05-07T19:35:02.681Z,957.70
2023-05-07T19:37:30.135Z,957.70
2023-05-07T19:39:56.778Z,979.70
2023-05-07T19:42:23.224Z,986.28
2023-05-07T19:44:49.609Z,985.33
2023-05-07T19:47:16.564Z,961.42
2023-05-07T19:49:42.910Z,965.17
2023-05-07T19:52:09.228Z,953.10
2023-05-07T19:54:35.834Z,943.88
2023-05-07T19:57:02.317Z,944.28
2023-05-07T19:59:28.805Z,929.67
2023-05-07T20:01:55.267Z,942.28
2023-05-07T20:04:21.692Z,936.47
2023-05-07T20:06:48.173Z,949.85
2023-05-07T20:09:14.679Z,958.70
2023-05-07T20:11:41.132Z,965.90
2023-05-07T20:14:09.466Z,943.13
2023-05-07T20:16:36.027Z,966.05
2023-05-07T20:19:02.640Z,932.17
2023-05-07T20:21:29.082Z,933.58
2023-05-07T20:23:55.704Z,966.55
2023-05-07T20:26:22.270Z,961.92
2023-05-07T20:28:48.596Z,955.80
2023-05-07T20:31:16.288Z,955.45
2023-05-07T20:33:42.708Z,942.17
2023-05-07T20:36:09.128Z,926.20
2023-05-07T20:38:35.646Z,945.45
2023-05-07T20:41:09.752Z,952.35
2023-05-07T20:43:37.540Z,928.95
2023-05-07T20:46:05.426Z,936.13
2023-05-07T20:48:31.912Z,907.78
2023-05-07T20:50:59.650Z,930.83
2023-05-07T20:53:29.593Z,931.42
2023-05-07T20:55:58.963Z,921.67
2023-05-07T20:58:27.774Z,929.05
2023-05-07T21:00:55.488Z,938.33
2023-05-07T21:03:25.263Z,928.42
2023-05-07T21:05:52.723Z,925.40
2023-05-07T21:08:19.753Z,934.10
2023-05-07T21:10:48.367Z,921.58
2023-05-07T21:13:15.142Z,897.58
2023-05-07T21:15:42.746Z,913.65
2023-05-07T21:18:12.541Z,928.53
2023-05-07T21:20:39.065Z,929.28
2023-05-07T21:23:06.060Z,937.15
2023-05-07T21:25:32.456Z,936.50
2023-05-07T21:27:59.225Z,945.15
2023-05-07T21:30:25.756Z,940.42
2023-05-07T21:32:54.254Z,913.80
2023-05-07T21:35:20.752Z,930.38
2023-05-07T21:37:47.228Z,920.97
2023-05-07T21:40:14.046Z,921.22
2023-05-07T21:42:40.733Z,927.55
2023-05-07T21:45:07.426Z,908.33
2023-05-07T21:47:33.855Z,923.42
2023-05-07T21:50:01.048Z,926.95
2023-05-07T21:52:27.758Z,920.58
2023-05-07T21:54:54.372Z,896.75
2023-05-07T21:57:21.076Z,927.85
2023-05-07T21:59:47.459Z,940.65
2023-05-07T22:02:13.953Z,944.75
2023-05-07T22:04:40.443Z,942.70
2023-05-07T22:07:06.979Z,961.60
2023-05-07T22:09:35.661Z,951.42
2023-05-07T22:12:03.291Z,934.15
2023-05-07T22:14:29.689Z,954.33
2023-05-07T22:16:56.307Z,905.88
2023-05-07T22:19:22.739Z,898.20
2023-05-07T22:21:49.235Z,906.67
2023-05-07T22:24:15.584Z,914.00
2023-05-07T22:26:42.051Z,908.03
2023-05-07T22:29:08.468Z,894.58
2023-05-07T22:31:34.887Z,891.38
2023-05-07T22:34:01.544Z,888.10
2023-05-07T22:36:28.060Z,894.30
2023-05-07T22:38:55.170Z,891.53
2023-05-07T22:41:21.567Z,909.47
2023-05-07T22:43:47.970Z,886.47
2023-05-07T22:46:14.478Z,905.75
2023-05-07T22:48:40.985Z,902.50
2023-05-07T22:51:13.896Z,894.47
2023-05-07T22:53:43.143Z,911.65
2023-05-07T22:56:09.766Z,914.53
2023-05-07T22:58:36.246Z,926.80
2023-05-07T23:01:02.728Z,932.25
2023-05-07T23:03:30.191Z,932.78
2023-05-07T23:05:56.600Z,933.17
2023-05-07T23:08:23.208Z,963.00
2023-05-07T23:10:52.450Z,935.17
2023-05-07T23:13:19.048Z,936.55
2023-05-07T23:15:45.504Z,934.00
2023-05-07T23:18:12.070Z,943.50
2023-05-07T23:20:41.250Z,939.42
2023-05-07T23:23:07.654Z,924.83
2023-05-07T23:25:34.039Z,941.45
2023-05-07T23:28:00.574Z,954.72
2023-05-07T23:30:26.964Z,965.20
2023-05-07T23:32:53.643Z,938.78
2023-05-07T23:35:20.265Z,926.58
2023-05-07T23:37:46.659Z,940.53
2023-05-07T23:40:13.410Z,933.67
2023-05-07T23:42:40.049Z,927.42
2023-05-07T23:45:06.777Z,936.97
2023-05-07T23:47:33.560Z,925.20
2023-05-07T23:49:59.963Z,947.90
2023-05-07T23:52:26.351Z,936.67
2023-05-07T23:54:52.843Z,935.53
2023-05-07T23:57:20.196Z,926.13
2023-05-07T23:59:46.609Z,923.35
